Aérodrome :
LOGIN :

S'inscrire | Disclaimer

   EN    FR    IT 

 










Légende :    VFR   VFR Marginal   IFR   IFR Intensif   IFR Très Intensif
Visi : 
Plafond : 
>= 8 km
>= 3000ft
5 à 8 km
1000 à 3000 ft
1500m à 5 km
500 à 1000 ft
800 à 1500m
200 à 500 ft
< 800m
< 200 ft
Symboles :   Orages  Brouillard  Fortes neiges  Fortes précipitations  Vent > 20 kt
SIGMETs :   Divers  Orages  Givrage  Turbulence  Onde Orograph.  Cendres Volcan.







- Altitude de l'aérodrome : 74 ft
- Code IATA : MRS
- Voir les cartes d'approche


LFML - Marseille / Marignane

DERNIER METAR :
  • 181900Z AUTO 13004KT CAVOK 07/04 Q1024 NOSIG

METARs EXPIRÉS :
  • 181830Z AUTO 13005KT CAVOK 08/04 Q1024 NOSIG
  • 181800Z AUTO 15003KT CAVOK 10/06 Q1024 NOSIG
  • 181730Z AUTO 15003KT CAVOK 10/05 Q1023 NOSIG
  • 181700Z AUTO 17004KT CAVOK 11/06 Q1023 NOSIG
  • 181630Z AUTO 17004KT CAVOK 12/06 Q1023 NOSIG

TAF TAF LFML
Valide du 18 à 15h jusqu'au 19 à 21h UTC


181400Z 1815/1921 15010KT 9999 SCT040 TX14/1914Z TN05/1906Z
BECMG 1815/1817 CAVOK
BECMG 1817/1819 VRB03KT
BECMG 1819/1821 09006KT
BECMG 1901/1903 BKN030
BECMG 1904/1906 VRB03KT
PROB40
TEMPO 1904/1909 SCT035
BECMG 1909/1911 SCT033
BECMG 1911/1913 27007KT
BECMG 1916/1918 VRB03KT
ATIS : +33 4 42 31 15 15
Pas de NOTAMs connus pour ce terrain.



MET'MAP, la Météo Aéronautique d'un coup d'oeil ! - Copyright ORBIFLY Décembre 2007 - Disclaimer

ORBIFLY MET'MAP TEAM :

Programmation & Développement : Alexandra Zaïnal
Conception & Développement : Baudouin d'Aumeries
Co-Programmation & Développement : Marc-Olivier Méhu
Soutien technique & logistique : Manuel Goepfert

Contact : metmap@orbifly.com




SOURCES & CREDITS :

   NOAA